Cote D IVoirian Star — A8SL4 — position and weather

sailwx.info

Track history (hours):
 
Tides and Currents Weather Stations Pressure Air Temp Water Temp Dewpoint Dewpoint Depression Visibility Wind Speed Wind Dir Waves Ship Positions

Cote D IVoirian Star

Last reported at 2016-Aug-27 14:17 UTC. Time now 2016-Aug-29 14:48 UTC.
Position N 27°43' W 016°24'.

Length 185 m; draft 8.5 m.

Type: Ship (hazmat cat A). MMSI: 636014241.

Date/timePositionNaut miles runAvg speedWind from/ knotsBaromVisibWave heightAir tempDewpointWater temp
2016-Aug-27 14:17N 27°43' W 016°24'3919.2
2016-Aug-27 12:16N 28°17' W 016°04'1419.4
2016-Aug-27 11:33N 28°28' W 015°54'1918.7
2016-Aug-27 10:33N 28°44' W 015°43'1919.1
2016-Aug-27 09:33N 29°03' W 015°38'1919.0
2016-Aug-27 08:33N 29°21' W 015°31'1918.8
2016-Aug-27 07:33N 29°39' W 015°25'1918.7
2016-Aug-27 06:33N 29°57' W 015°19'3818.8
2016-Aug-27 04:33N 30°33' W 015°08'2819.3
2016-Aug-27 03:06N 30°60' W 014°58'1119.4
2016-Aug-27 02:33N 31°10' W 014°55'44419.3
2016-Aug-26 03:31N 38°17' W 012°26'2119.6
2016-Aug-26 02:27N 38°37' W 012°19'1719.0
2016-Aug-26 01:33N 38°54' W 012°13'6619.5
2016-Aug-25 22:11N 39°57' W 011°50'1719.8
2016-Aug-25 21:20N 40°13' W 011°43'2219.6
2016-Aug-25 20:12N 40°34' W 011°36'1419.5
2016-Aug-25 19:28N 40°48' W 011°30'51719.1
2016-Aug-24 16:19N 48°32' W 006°08'1619.6
2016-Aug-24 15:30N 48°46' W 005°56'1819.6
2016-Aug-24 14:34N 48°59' W 005°36'2019.9
2016-Aug-24 13:33N 49°09' W 005°10'4018.5
2016-Aug-24 11:25N 49°29' W 004°18'1618.3
2016-Aug-24 10:34N 49°37' W 003°57'1817.8
2016-Aug-24 09:33N 49°46' W 003°34'1817.8
2016-Aug-24 08:32N 49°54' W 003°09'1919.0
2016-Aug-24 07:33N 50°02' W 002°42'2120.9
2016-Aug-24 06:33N 50°08' W 002°11'4422.2
2016-Aug-24 04:33N 50°20' W 001°04'2420.2
2016-Aug-24 03:23N 50°27' W 000°28'1518.8
2016-Aug-24 02:34N 50°31' W 000°05'1817.6
2016-Aug-24 01:33N 50°36' E 000°22'3517.6
2016-Aug-23 23:33N 50°54' E 001°09'1918.7
2016-Aug-23 22:33N 51°06' E 001°32'1818.4
2016-Aug-23 21:34N 51°19' E 001°52'1615.7
2016-Aug-23 20:33N 51°21' E 002°17'1717.2
2016-Aug-23 19:33N 51°22' E 002°45'1313.3
2016-Aug-23 18:33N 51°24' E 003°06'1515.3
2016-Aug-23 17:33N 51°25' E 003°30'9 9.4
2016-Aug-23 16:33N 51°22' E 003°45'1110.5
2016-Aug-23 15:33N 51°26' E 004°00'1010.1
2016-Aug-23 14:33N 51°21' E 004°14'5 4.3
2016-Aug-23 13:27N 51°17' E 004°15'0 0.4
2016-Aug-23 12:34N 51°16' E 004°15'1 0.5
2016-Aug-23 11:29N 51°16' E 004°15'0 0.0
2016-Aug-23 10:29N 51°16' E 004°15'0 0.0
2016-Aug-23 09:32N 51°16' E 004°15'0 0.0
2016-Aug-23 08:32N 51°16' E 004°15'0 0.0
2016-Aug-23 07:32N 51°16' E 004°15'0 0.0
2016-Aug-23 06:32N 51°16' E 004°15'0 0.0
2016-Aug-23 05:32N 51°16' E 004°15'0 0.0
2016-Aug-23 04:32N 51°16' E 004°15'0 0.0
2016-Aug-23 03:32N 51°16' E 004°15'0 0.0
2016-Aug-23 02:32N 51°16' E 004°15'0 0.0
2016-Aug-23 01:29N 51°16' E 004°15'0 0.0
2016-Aug-23 00:32N 51°16' E 004°15'0 0.0
2016-Aug-22 23:32N 51°16' E 004°15'0 0.0
2016-Aug-22 22:32N 51°16' E 004°15'0 0.0
2016-Aug-22 21:32N 51°16' E 004°15'0 0.0
2016-Aug-22 20:26N 51°16' E 004°15'0 0.0
2016-Aug-22 19:32N 51°16' E 004°15'0 0.0
2016-Aug-22 18:32N 51°16' E 004°15'0 0.0
2016-Aug-22 17:32N 51°16' E 004°15'0 0.0
2016-Aug-22 16:29N 51°16' E 004°15'0 0.0
2016-Aug-22 15:32N 51°16' E 004°15'0 0.0
2016-Aug-22 14:32N 51°16' E 004°15'0 0.0
2016-Aug-22 13:32N 51°16' E 004°15'0 0.0
2016-Aug-22 12:32N 51°16' E 004°15'0 0.0
2016-Aug-22 11:32N 51°16' E 004°15'0 0.0
2016-Aug-22 10:32N 51°16' E 004°15'0 0.0
2016-Aug-22 09:32N 51°16' E 004°15'0 0.0
2016-Aug-22 08:32N 51°16' E 004°15'0 0.0
2016-Aug-22 07:32N 51°16' E 004°15'0 0.0
2016-Aug-22 06:29N 51°16' E 004°15'0 0.0
2016-Aug-22 05:32N 51°16' E 004°15'0 0.0
2016-Aug-22 04:32N 51°16' E 004°15'0 0.0
2016-Aug-22 03:32N 51°16' E 004°15'0 0.0
2016-Aug-22 02:32N 51°16' E 004°15'0 0.0
2016-Aug-22 01:29N 51°16' E 004°15'0 0.0
2016-Aug-22 00:32N 51°16' E 004°15'0 0.0
2016-Aug-21 23:32N 51°16' E 004°15'0 0.0
2016-Aug-21 22:32N 51°16' E 004°15'0 0.0
2016-Aug-21 21:32N 51°16' E 004°15'0 0.0
2016-Aug-21 20:32N 51°16' E 004°15'0 0.0
2016-Aug-21 19:32N 51°16' E 004°15'0 0.0
2016-Aug-21 18:32N 51°16' E 004°15'0 0.0
2016-Aug-21 17:30N 51°16' E 004°15'1 1.4
2016-Aug-21 16:33N 51°16' E 004°17'1 1.2
2016-Aug-21 15:33N 51°16' E 004°19'9 8.8
2016-Aug-21 14:34N 51°24' E 004°12'9 9.4
2016-Aug-21 13:33N 51°23' E 003°57'1111.3
2016-Aug-21 12:33N 51°26' E 003°39'1111.2
2016-Aug-21 11:33N 51°24' E 003°22'1312.9
2016-Aug-21 10:33N 51°24' E 003°01'1211.9
2016-Aug-21 09:33N 51°21' E 002°42'5 5.1
2016-Aug-21 08:33N 51°22' E 002°34'4 4.4
2016-Aug-21 07:33N 51°21' E 002°27'1717.3
2016-Aug-21 06:33N 51°13' E 002°03'1919.4
2016-Aug-21 05:33N 51°01' E 001°38'2319.5
2016-Aug-21 04:24N 50°42' E 001°19'5318.6
2016-Aug-21 01:33N 50°21' E 000°03'2119.0
2016-Aug-21 00:27N 50°28' W 000°28'1820.0
2016-Aug-20 23:33N 50°36' W 000°54'1212.4
2016-Aug-20 22:34N 50°46' W 001°05'3 2.9
2016-Aug-20 21:33N 50°49' W 001°05'0 0.0
2016-Aug-20 20:33N 50°49' W 001°05'0 0.0
2016-Aug-20 19:33N 50°49' W 001°05'0 0.0
2016-Aug-20 18:33N 50°49' W 001°05'0 0.0
2016-Aug-20 17:33N 50°49' W 001°05'0 0.0
2016-Aug-20 16:33N 50°49' W 001°05'0 0.0
2016-Aug-20 15:33N 50°49' W 001°05'0 0.0
2016-Aug-20 14:33N 50°49' W 001°05'0 0.0
2016-Aug-20 13:34N 50°49' W 001°05'0 0.0
2016-Aug-20 12:34N 50°49' W 001°05'0 0.0
2016-Aug-20 11:34N 50°49' W 001°05'0 0.0
2016-Aug-20 10:34N 50°49' W 001°05'0 0.0
2016-Aug-20 09:34N 50°49' W 001°05'0 0.0
2016-Aug-20 08:34N 50°49' W 001°05'0 0.0
2016-Aug-20 07:34N 50°49' W 001°05'2 1.6
2016-Aug-20 06:34N 50°47' W 001°06'8 8.3
2016-Aug-20 05:34N 50°40' W 000°59'6 5.5
2016-Aug-20 04:34N 50°35' W 001°00'8 7.4
2016-Aug-20 03:27N 50°30' W 001°11'9 9.5
2016-Aug-20 02:34N 50°25' W 001°22'6013.9
2016-Aug-19 22:15N 49°53' W 002°41'1318.3
2016-Aug-19 21:33N 49°49' W 002°59'1918.6
2016-Aug-19 20:33N 49°39' W 003°24'6919.8
2016-Aug-19 17:05N 49°04' W 004°54'1121.0
2016-Aug-19 16:34N 48°58' W 005°09'2121.1
2016-Aug-19 15:34N 48°47' W 005°36'70619.0
2016-Aug-18 02:27N 38°07' W 012°27'5519.0
2016-Aug-17 23:33N 37°14' W 012°47'1919.0
2016-Aug-17 22:32N 36°55' W 012°53'  
Track history (hours):
 
Tides and Currents Weather Stations Pressure Air Temp Water Temp Dewpoint Dewpoint Depression Visibility Wind Speed Wind Dir Waves Ship Positions

Cote D IVoirian Star

Last reported at 2016-Aug-27 14:17 UTC. Time now 2016-Aug-29 14:48 UTC.
Position N 27°43' W 016°24'.

Length 185 m; draft 8.5 m.

Type: Ship (hazmat cat A). MMSI: 636014241.

Date/timePositionNaut miles runAvg speedWind from/ knotsBaromVisibWave heightAir tempDewpointWater temp
2016-Aug-27 14:17N 27°43' W 016°24'3919.2
2016-Aug-27 12:16N 28°17' W 016°04'1419.4
2016-Aug-27 11:33N 28°28' W 015°54'1918.7
2016-Aug-27 10:33N 28°44' W 015°43'1919.1
2016-Aug-27 09:33N 29°03' W 015°38'1919.0
2016-Aug-27 08:33N 29°21' W 015°31'1918.8
2016-Aug-27 07:33N 29°39' W 015°25'1918.7
2016-Aug-27 06:33N 29°57' W 015°19'3818.8
2016-Aug-27 04:33N 30°33' W 015°08'2819.3
2016-Aug-27 03:06N 30°60' W 014°58'1119.4
2016-Aug-27 02:33N 31°10' W 014°55'44419.3
2016-Aug-26 03:31N 38°17' W 012°26'2119.6
2016-Aug-26 02:27N 38°37' W 012°19'1719.0
2016-Aug-26 01:33N 38°54' W 012°13'6619.5
2016-Aug-25 22:11N 39°57' W 011°50'1719.8
2016-Aug-25 21:20N 40°13' W 011°43'2219.6
2016-Aug-25 20:12N 40°34' W 011°36'1419.5
2016-Aug-25 19:28N 40°48' W 011°30'51719.1
2016-Aug-24 16:19N 48°32' W 006°08'1619.6
2016-Aug-24 15:30N 48°46' W 005°56'1819.6
2016-Aug-24 14:34N 48°59' W 005°36'2019.9
2016-Aug-24 13:33N 49°09' W 005°10'4018.5
2016-Aug-24 11:25N 49°29' W 004°18'1618.3
2016-Aug-24 10:34N 49°37' W 003°57'1817.8
2016-Aug-24 09:33N 49°46' W 003°34'1817.8
2016-Aug-24 08:32N 49°54' W 003°09'1919.0
2016-Aug-24 07:33N 50°02' W 002°42'2120.9
2016-Aug-24 06:33N 50°08' W 002°11'4422.2
2016-Aug-24 04:33N 50°20' W 001°04'2420.2
2016-Aug-24 03:23N 50°27' W 000°28'1518.8
2016-Aug-24 02:34N 50°31' W 000°05'1817.6
2016-Aug-24 01:33N 50°36' E 000°22'3517.6
2016-Aug-23 23:33N 50°54' E 001°09'1918.7
2016-Aug-23 22:33N 51°06' E 001°32'1818.4
2016-Aug-23 21:34N 51°19' E 001°52'1615.7
2016-Aug-23 20:33N 51°21' E 002°17'1717.2
2016-Aug-23 19:33N 51°22' E 002°45'1313.3
2016-Aug-23 18:33N 51°24' E 003°06'1515.3
2016-Aug-23 17:33N 51°25' E 003°30'9 9.4
2016-Aug-23 16:33N 51°22' E 003°45'1110.5
2016-Aug-23 15:33N 51°26' E 004°00'1010.1
2016-Aug-23 14:33N 51°21' E 004°14'5 4.3
2016-Aug-23 13:27N 51°17' E 004°15'0 0.4
2016-Aug-23 12:34N 51°16' E 004°15'1 0.5
2016-Aug-23 11:29N 51°16' E 004°15'0 0.0
2016-Aug-23 10:29N 51°16' E 004°15'0 0.0
2016-Aug-23 09:32N 51°16' E 004°15'0 0.0
2016-Aug-23 08:32N 51°16' E 004°15'0 0.0
2016-Aug-23 07:32N 51°16' E 004°15'0 0.0
2016-Aug-23 06:32N 51°16' E 004°15'0 0.0
2016-Aug-23 05:32N 51°16' E 004°15'0 0.0
2016-Aug-23 04:32N 51°16' E 004°15'0 0.0
2016-Aug-23 03:32N 51°16' E 004°15'0 0.0
2016-Aug-23 02:32N 51°16' E 004°15'0 0.0
2016-Aug-23 01:29N 51°16' E 004°15'0 0.0
2016-Aug-23 00:32N 51°16' E 004°15'0 0.0
2016-Aug-22 23:32N 51°16' E 004°15'0 0.0
2016-Aug-22 22:32N 51°16' E 004°15'0 0.0
2016-Aug-22 21:32N 51°16' E 004°15'0 0.0
2016-Aug-22 20:26N 51°16' E 004°15'0 0.0
2016-Aug-22 19:32N 51°16' E 004°15'0 0.0
2016-Aug-22 18:32N 51°16' E 004°15'0 0.0
2016-Aug-22 17:32N 51°16' E 004°15'0 0.0
2016-Aug-22 16:29N 51°16' E 004°15'0 0.0
2016-Aug-22 15:32N 51°16' E 004°15'0 0.0
2016-Aug-22 14:32N 51°16' E 004°15'0 0.0
2016-Aug-22 13:32N 51°16' E 004°15'0 0.0
2016-Aug-22 12:32N 51°16' E 004°15'0 0.0
2016-Aug-22 11:32N 51°16' E 004°15'0 0.0
2016-Aug-22 10:32N 51°16' E 004°15'0 0.0
2016-Aug-22 09:32N 51°16' E 004°15'0 0.0
2016-Aug-22 08:32N 51°16' E 004°15'0 0.0
2016-Aug-22 07:32N 51°16' E 004°15'0 0.0
2016-Aug-22 06:29N 51°16' E 004°15'0 0.0
2016-Aug-22 05:32N 51°16' E 004°15'0 0.0
2016-Aug-22 04:32N 51°16' E 004°15'0 0.0
2016-Aug-22 03:32N 51°16' E 004°15'0 0.0
2016-Aug-22 02:32N 51°16' E 004°15'0 0.0
2016-Aug-22 01:29N 51°16' E 004°15'0 0.0
2016-Aug-22 00:32N 51°16' E 004°15'0 0.0
2016-Aug-21 23:32N 51°16' E 004°15'0 0.0
2016-Aug-21 22:32N 51°16' E 004°15'0 0.0
2016-Aug-21 21:32N 51°16' E 004°15'0 0.0
2016-Aug-21 20:32N 51°16' E 004°15'0 0.0
2016-Aug-21 19:32N 51°16' E 004°15'0 0.0
2016-Aug-21 18:32N 51°16' E 004°15'0 0.0
2016-Aug-21 17:30N 51°16' E 004°15'1 1.4
2016-Aug-21 16:33N 51°16' E 004°17'1 1.2
2016-Aug-21 15:33N 51°16' E 004°19'9 8.8
2016-Aug-21 14:34N 51°24' E 004°12'9 9.4
2016-Aug-21 13:33N 51°23' E 003°57'1111.3
2016-Aug-21 12:33N 51°26' E 003°39'1111.2
2016-Aug-21 11:33N 51°24' E 003°22'1312.9
2016-Aug-21 10:33N 51°24' E 003°01'1211.9
2016-Aug-21 09:33N 51°21' E 002°42'5 5.1
2016-Aug-21 08:33N 51°22' E 002°34'4 4.4
2016-Aug-21 07:33N 51°21' E 002°27'1717.3
2016-Aug-21 06:33N 51°13' E 002°03'1919.4
2016-Aug-21 05:33N 51°01' E 001°38'2319.5
2016-Aug-21 04:24N 50°42' E 001°19'5318.6
2016-Aug-21 01:33N 50°21' E 000°03'2119.0
2016-Aug-21 00:27N 50°28' W 000°28'1820.0
2016-Aug-20 23:33N 50°36' W 000°54'1212.4
2016-Aug-20 22:34N 50°46' W 001°05'3 2.9
2016-Aug-20 21:33N 50°49' W 001°05'0 0.0
2016-Aug-20 20:33N 50°49' W 001°05'0 0.0
2016-Aug-20 19:33N 50°49' W 001°05'0 0.0
2016-Aug-20 18:33N 50°49' W 001°05'0 0.0
2016-Aug-20 17:33N 50°49' W 001°05'0 0.0
2016-Aug-20 16:33N 50°49' W 001°05'0 0.0
2016-Aug-20 15:33N 50°49' W 001°05'0 0.0
2016-Aug-20 14:33N 50°49' W 001°05'0 0.0
2016-Aug-20 13:34N 50°49' W 001°05'0 0.0
2016-Aug-20 12:34N 50°49' W 001°05'0 0.0
2016-Aug-20 11:34N 50°49' W 001°05'0 0.0
2016-Aug-20 10:34N 50°49' W 001°05'0 0.0
2016-Aug-20 09:34N 50°49' W 001°05'0 0.0
2016-Aug-20 08:34N 50°49' W 001°05'0 0.0
2016-Aug-20 07:34N 50°49' W 001°05'2 1.6
2016-Aug-20 06:34N 50°47' W 001°06'8 8.3
2016-Aug-20 05:34N 50°40' W 000°59'6 5.5
2016-Aug-20 04:34N 50°35' W 001°00'8 7.4
2016-Aug-20 03:27N 50°30' W 001°11'9 9.5
2016-Aug-20 02:34N 50°25' W 001°22'6013.9
2016-Aug-19 22:15N 49°53' W 002°41'1318.3
2016-Aug-19 21:33N 49°49' W 002°59'1918.6
2016-Aug-19 20:33N 49°39' W 003°24'6919.8
2016-Aug-19 17:05N 49°04' W 004°54'1121.0
2016-Aug-19 16:34N 48°58' W 005°09'2121.1
2016-Aug-19 15:34N 48°47' W 005°36'70619.0
2016-Aug-18 02:27N 38°07' W 012°27'5519.0
2016-Aug-17 23:33N 37°14' W 012°47'1919.0
2016-Aug-17 22:32N 36°55' W 012°53'  

Dump ship's entire track history